Time;durP1;ratioP1;P1;durP2;ratioP2;P2;SDS_P1;SDS_P2;PMS_P1;PMS_P2;Temp;Humidity;BMP_temperature;BMP_pressure;BME280_temperature;BME280_humidity;BME280_pressure;Samples;Min_cycle;Max_cycle;Signal;HPM_P1;HPM_P2
2021/09/05 19:06:51;;;;;;;;;;;;;;;14.88;51.84;101291.32;1640452;83;26185;-83
2021/09/05 19:09:18;;;;;;;;;;;;;;;14.82;53.44;101287.95;1644118;85;20178;-84
2021/09/05 19:11:47;;;;;;;;;;;;;;;14.69;54.11;101290.53;1647189;85;20211;-83
2021/09/05 19:14:12;;;;;;;;;;;;;;;14.62;54.21;101290.83;1641778;85;20206;-83
2021/09/05 19:16:40;;;;;;;;;;;;;;;14.55;55.55;101291.06;1618702;87;21875;-86
2021/09/05 19:19:07;;;;;;;;;;;;;;;14.45;56.54;101292.96;1643017;85;20131;-84
2021/09/05 19:21:32;;;;;;;;;;;;;;;14.35;57.16;101293.88;1642823;85;20184;-82
2021/09/05 19:23:58;;;;;;;;;;;;;;;14.28;57.57;101302.64;1642698;85;20174;-87
2021/09/05 19:26:26;;;;;;;;;;;;;;;14.21;57.67;101298.41;1643852;86;20239;-85
2021/09/05 19:28:51;;;;;;;;;;;;;;;14.13;57.66;101302.32;1642074;85;20519;-81
2021/09/05 19:31:18;;;;;;;;;;;;;;;14.08;58.04;101307.26;1644663;85;20170;-81
2021/09/05 19:33:45;;;;;;;;;;;;;;;13.98;58.22;101301.52;1642522;85;20301;-81
2021/09/05 19:36:11;;;;;;;;;;;;;;;13.96;58.78;101307.45;1643293;85;20211;-80
2021/09/05 19:38:37;;;;;;;;;;;;;;;13.91;58.66;101308.41;1642720;85;20358;-81
2021/09/05 19:41:07;;;;;;;;;;;;;;;13.85;58.86;101306.84;1642535;85;21137;-90
2021/09/05 19:43:33;;;;;;;;;;;;;;;13.83;59.61;101299.03;1643118;85;20586;-88
2021/09/05 19:45:59;;;;;;;;;;;;;;;13.85;59.56;101309.50;1642375;85;20198;-86
2021/09/05 19:48:27;;;;;;;;;;;;;;;13.93;60.05;101305.59;1642836;85;20221;-84
2021/09/05 19:50:53;;;;;;;;;;;;;;;13.97;59.42;101305.66;1644354;85;20202;-89
2021/09/05 19:53:19;;;;;;;;;;;;;;;13.88;59.24;101308.70;1642805;85;21097;-85
2021/09/05 19:55:48;;;;;;;;;;;;;;;13.91;59.47;101304.42;1645686;86;20201;-86
2021/09/05 19:58:15;;;;;;;;;;;;;;;13.83;59.98;101303.02;1643287;85;20103;-87
2021/09/05 20:00:43;;;;;;;;;;;;;;;13.83;59.66;101306.99;1642563;85;20191;-84
2021/09/05 20:03:13;;;;;;;;;;;;;;;13.81;59.71;101304.96;1647182;86;20432;-86
2021/09/05 20:05:41;;;;;;;;;;;;;;;13.77;59.68;101304.94;1619720;87;20789;-84
2021/09/05 20:08:07;;;;;;;;;;;;;;;13.73;59.89;101306.20;1643687;86;20817;-87
2021/09/05 20:10:36;;;;;;;;;;;;;;;13.75;59.65;101306.88;1641007;84;20229;-86
2021/09/05 20:13:04;;;;;;;;;;;;;;;13.72;60.04;101302.72;1643104;85;20291;-88
2021/09/05 20:15:30;;;;;;;;;;;;;;;13.73;60.01;101300.89;1614547;87;20145;-88
2021/09/05 20:17:56;;;;;;;;;;;;;;;13.70;59.94;101303.84;1592021;88;21172;-89
2021/09/05 20:20:21;;;;;;;;;;;;;;;13.69;60.00;101307.47;1597188;87;20137;-90
2021/09/05 20:22:47;;;;;;;;;;;;;;;13.68;60.18;101305.82;1656100;85;20149;-88
2021/09/05 20:25:15;;;;;;;;;;;;;;;13.62;60.08;101310.72;1654266;85;20213;-87
2021/09/05 20:27:44;;;;;;;;;;;;;;;13.56;60.61;101311.30;1656002;85;20137;-88
2021/09/05 20:30:13;;;;;;;;;;;;;;;13.51;60.66;101314.90;1655715;85;21740;-87
2021/09/05 20:32:43;;;;;;;;;;;;;;;13.51;60.46;101314.90;1654078;85;20170;-89
2021/09/05 20:35:11;;;;;;;;;;;;;;;13.42;60.72;101314.45;1653685;85;20251;-87
2021/09/05 20:37:38;;;;;;;;;;;;;;;13.37;60.96;101315.39;1655072;85;20193;-85
2021/09/05 20:40:04;;;;;;;;;;;;;;;13.35;61.22;101316.86;1652590;84;20859;-86
2021/09/05 20:42:32;;;;;;;;;;;;;;;13.38;61.02;101310.44;1655146;85;22166;-87
2021/09/05 20:45:02;;;;;;;;;;;;;;;13.41;60.89;101310.14;1654900;85;20174;-86
2021/09/05 20:47:33;;;;;;;;;;;;;;;13.38;61.39;101310.44;1653852;85;20133;-85
2021/09/05 20:50:06;;;;;;;;;;;;;;;13.26;61.70;101314.55;1652576;85;20134;-84
2021/09/05 20:52:28;;;;;;;;;;;;;;;13.24;61.94;101317.84;1634948;85;20154;-86
2021/09/05 20:54:54;;;;;;;;;;;;;;;13.23;62.05;101322.80;1653759;86;22300;-84
2021/09/05 20:57:23;;;;;;;;;;;;;;;13.23;61.99;101312.19;1652584;85;20208;-84
2021/09/05 20:59:50;;;;;;;;;;;;;;;13.21;61.74;101310.67;1653866;86;20150;-84
2021/09/05 21:02:16;;;;;;;;;;;;;;;13.17;62.12;101313.26;1653550;85;20190;-84
2021/09/05 21:04:44;;;;;;;;;;;;;;;13.09;61.80;101308.67;1653095;85;20516;-83
2021/09/05 21:07:09;;;;;;;;;;;;;;;13.09;61.76;101315.30;1648101;85;20176;-83
2021/09/05 21:09:35;;;;;;;;;;;;;;;13.04;61.64;101325.02;1651967;85;20182;-83
2021/09/05 21:12:00;;;;;;;;;;;;;;;13.03;61.65;101317.20;1648579;85;20179;-83
2021/09/05 21:14:29;;;;;;;;;;;;;;;13.01;62.13;101313.88;1650193;84;20145;-84
2021/09/05 21:16:56;;;;;;;;;;;;;;;12.96;62.06;101316.95;1648223;85;20238;-83
2021/09/05 21:19:23;;;;;;;;;;;;;;;12.91;62.32;101313.88;1648596;85;21110;-83
2021/09/05 21:21:51;;;;;;;;;;;;;;;12.92;62.19;101320.36;1646434;85;20220;-82
2021/09/05 21:24:17;;;;;;;;;;;;;;;12.91;62.65;101316.05;1649474;85;20492;-82
2021/09/05 21:26:42;;;;;;;;;;;;;;;12.92;62.29;101316.38;1651396;85;20633;-83
2021/09/05 21:29:09;;;;;;;;;;;;;;;12.96;62.20;101316.09;1647931;85;20189;-82
2021/09/05 21:31:35;;;;;;;;;;;;;;;13.00;61.94;101313.52;1647467;85;21189;-83
2021/09/05 21:34:01;;;;;;;;;;;;;;;12.98;62.57;101315.48;1649073;85;20384;-81
2021/09/05 21:36:27;;;;;;;;;;;;;;;12.90;62.58;101313.05;1649946;85;20181;-81
2021/09/05 21:38:52;;;;;;;;;;;;;;;12.92;62.99;101316.38;1647981;85;20446;-83
2021/09/05 21:41:21;;;;;;;;;;;;;;;12.90;63.19;101314.38;1648717;85;20237;-84
2021/09/05 21:43:46;;;;;;;;;;;;;;;12.89;63.90;101313.19;1651355;85;20610;-84
2021/09/05 21:46:12;;;;;;;;;;;;;;;12.88;63.96;101316.34;1649570;85;20515;-82
2021/09/05 21:48:38;;;;;;;;;;;;;;;12.87;64.16;101315.98;1627766;87;20784;-84
2021/09/05 21:51:05;;;;;;;;;;;;;;;12.83;64.48;101317.23;1650005;85;20208;-84
2021/09/05 21:53:33;;;;;;;;;;;;;;;12.79;64.37;101316.36;1648527;85;20975;-83
2021/09/05 21:56:03;;;;;;;;;;;;;;;12.76;64.89;101313.50;1650232;85;21179;-85
2021/09/05 21:58:31;;;;;;;;;;;;;;;12.73;65.42;101316.43;1649148;85;20130;-84
2021/09/05 22:00:58;;;;;;;;;;;;;;;12.72;65.37;101324.02;1640797;86;20177;-83
2021/09/05 22:03:25;;;;;;;;;;;;;;;12.70;65.83;101319.36;1646916;85;20189;-83
2021/09/05 22:05:53;;;;;;;;;;;;;;;12.71;65.35;101321.05;1651302;85;20118;-82
2021/09/05 22:08:19;;;;;;;;;;;;;;;12.71;65.86;101321.05;1661543;85;20995;-85
2021/09/05 22:10:46;;;;;;;;;;;;;;;12.67;66.46;101322.30;1637187;85;20201;-83
2021/09/05 22:13:12;;;;;;;;;;;;;;;12.64;66.60;101325.22;1640277;85;20530;-83
2021/09/05 22:15:39;;;;;;;;;;;;;;;12.61;66.92;101324.18;1663579;85;20599;-83
2021/09/05 22:18:04;;;;;;;;;;;;;;;12.61;67.16;101320.20;1660662;85;20272;-85
2021/09/05 22:20:33;;;;;;;;;;;;;;;12.57;67.15;101326.28;1661683;84;22032;-84
2021/09/05 22:22:58;;;;;;;;;;;;;;;12.60;66.54;101326.47;1660855;84;20209;-87
2021/09/05 22:25:24;;;;;;;;;;;;;;;12.55;66.93;101320.27;1663130;83;20187;-89
2021/09/05 22:27:53;;;;;;;;;;;;;;;12.54;66.52;101322.59;1637665;85;20126;-89
2021/09/05 22:30:20;;;;;;;;;;;;;;;12.53;66.28;101324.38;1661278;84;21498;-88
2021/09/05 22:32:49;;;;;;;;;;;;;;;12.54;66.44;101324.74;1664577;85;21265;-87
2021/09/05 22:35:16;;;;;;;;;;;;;;;12.49;66.26;101325.66;1665330;84;20128;-83
2021/09/05 22:37:46;;;;;;;;;;;;;;;12.47;66.36;101324.94;1686223;82;20092;-82
2021/09/05 22:40:12;;;;;;;;;;;;;;;12.42;67.37;101326.35;1665783;85;20134;-86
2021/09/05 22:42:43;;;;;;;;;;;;;;;12.39;67.13;101320.83;1663629;85;20228;-84
2021/09/05 22:45:12;;;;;;;;;;;;;;;12.43;66.68;101319.59;1661363;85;21146;-86
2021/09/05 22:47:39;;;;;;;;;;;;;;;12.41;66.91;101323.34;1658996;85;20199;-88
2021/09/05 22:50:06;;;;;;;;;;;;;;;12.43;66.54;101320.06;1663409;85;20507;-88
2021/09/05 22:52:32;;;;;;;;;;;;;;;12.41;66.39;101324.17;1664058;85;20172;-89
2021/09/05 22:54:57;;;;;;;;;;;;;;;12.33;67.88;101323.54;1664772;85;20180;-87
2021/09/05 22:57:25;;;;;;;;;;;;;;;12.10;69.30;101324.28;1666339;84;21155;-84
2021/09/05 22:59:52;;;;;;;;;;;;;;;11.91;70.24;101320.27;1664765;85;20161;-85
2021/09/05 23:02:18;;;;;;;;;;;;;;;11.76;71.12;101318.00;1664852;83;20094;-85
2021/09/05 23:04:44;;;;;;;;;;;;;;;11.65;71.75;101318.09;1639708;85;20143;-82
2021/09/05 23:07:09;;;;;;;;;;;;;;;11.55;72.27;101322.53;1645260;85;20117;-87
2021/09/05 23:09:38;;;;;;;;;;;;;;;11.45;72.80;101323.33;1632422;87;21165;-83
2021/09/05 23:12:05;;;;;;;;;;;;;;;11.42;73.06;101322.27;1632803;86;20227;-84
2021/09/05 23:14:33;;;;;;;;;;;;;;;11.36;73.37;101320.62;1629305;85;20212;-84
2021/09/05 23:16:59;;;;;;;;;;;;;;;11.30;73.70;101314.07;1632044;87;20135;-84
2021/09/05 23:19:26;;;;;;;;;;;;;;;11.29;73.70;101317.17;1639760;85;20528;-84
2021/09/05 23:21:52;;;;;;;;;;;;;;;11.35;72.96;101313.18;1632092;87;21881;-84
2021/09/05 23:24:20;;;;;;;;;;;;;;;11.37;73.62;101315.20;1609736;87;20264;-86
2021/09/05 23:26:45;;;;;;;;;;;;;;;11.36;73.50;101312.22;1629903;87;20201;-87
2021/09/05 23:29:11;;;;;;;;;;;;;;;11.39;73.63;101309.31;1628649;86;20140;-85
2021/09/05 23:31:36;;;;;;;;;;;;;;;11.44;72.46;101307.59;1632573;85;20164;-83
2021/09/05 23:34:03;;;;;;;;;;;;;;;11.48;72.22;101312.48;1630246;87;21229;-84
2021/09/05 23:36:29;;;;;;;;;;;;;;;11.49;72.43;101303.55;1605591;86;20167;-83
2021/09/05 23:38:55;;;;;;;;;;;;;;;11.53;72.08;101304.61;1610670;85;20151;-85
2021/09/05 23:41:23;;;;;;;;;;;;;;;11.54;72.50;101301.83;1630335;87;20144;-83
2021/09/05 23:43:51;;;;;;;;;;;;;;;11.54;72.17;101304.97;1625925;87;20453;-84
2021/09/05 23:46:18;;;;;;;;;;;;;;;11.50;73.24;101299.95;1632805;87;21693;-82
2021/09/05 23:48:45;;;;;;;;;;;;;;;11.53;73.12;101307.25;1586832;87;20183;-82
2021/09/05 23:51:13;;;;;;;;;;;;;;;11.54;72.71;101307.61;1631197;87;20179;-84
2021/09/05 23:53:41;;;;;;;;;;;;;;;11.56;72.44;101313.59;1610072;86;20119;-82
2021/09/05 23:56:09;;;;;;;;;;;;;;;11.49;73.12;101311.48;1629691;85;20177;-82
2021/09/05 23:58:35;;;;;;;;;;;;;;;11.53;72.77;101309.44;1626038;85;21184;-85
